Portada
METAR-TAF:

METAR-TAF

Aeroports :

Asahikawa-airbase, Japó

latitud: 43-48N, longitud: 142-22E, altitud: 115 m

Observació

L'informe es va fer fa 8 hores i 52 minuts, a les 06:24 UTC
Vent 16 kt del Oest/Sud-Oest amb ràfegues de 26 kt
Temperatura 20°C
Humitat 24%
Pressió 1008 hPa
Visibilitat 10 km o més
Escasses núvols a una alçada de 5000 ft
Núvols disperses a una alçada de 7000 ft

METAR: RJCA 060624Z 25016G26KT 9999 FEW050 SCT070 20/M01 Q1008 RMK 1CU050 3AC070 A2979

Hora: 00:16 (15:16 UTC)


TAF: manca

Observacions i pronòstics meteorològics de més de 4000 aeroports (METAR i TAF).

Les estacions disponibles són els punts grocs i vermells al mapa.

Posi el ratolí al punt desitjat per veure el nom de l'estació.

Feu clic per veure les observacions i els pronòstics meteorològics.

Per canviar el mapa: feu clic els botons verds amb una creu de color negre per apropar; al botó verd amb un guió per allunyar la imatge; o en les fletxes verdes per a mapes adjacents.


METAR-TAF: